BGSO2: Deep Fork River, Beggs, Okla

Data processed at Sun Apr 30 2017 23:19


All information presented herein is the property of the government of the United States of America and may be revised or deleted at any time without prior notice.
Dissemination of this information without the expressed written consent of the Public Affairs Office, Tulsa District U.S. Army Corps of Engineers is strictly prohibited.
These data are gathered electronically and, as presented, have not undergone any form of quality control. These data are not guaranteed to be valid or correct.
Go to home page.
Go to station list.
Go to station map.

Upstream stations:

Downstream station:
Previous Day
Next Day
Current Day
    
SHEF ID:       BGSO2     Deep Fork near Beggs, OK
STATION TYPE:  

               PRECIP     STAGE  STAGE(2)  RIV-FLOW  BAT-LOAD
                   in        ft        ft       cfs      volt
              Ccp-Rev   Ccp-Rev   Ccp-Rev   Ccp-Rev   Ccp-Rev
(US/Central)
04/30 00:00      0.00     13.66     13.88      5603     12.41
04/30 01:00      0.00     13.84     14.14      5716     12.41
04/30 02:00      0.00     14.13     14.39      5908     12.41
04/30 03:00      0.00     14.36     14.60      6057     12.41
04/30 04:00      0.00     14.58     14.78      6207     12.41
04/30 05:00      0.00     14.79     14.96      6346     12.41
04/30 06:00      0.00     14.76     15.09      6326     12.41
04/30 07:00      0.00     14.97     15.20      6466     12.41
04/30 08:00      0.00     15.00     15.28      6493     12.41
04/30 09:00      0.00     15.03     15.36      6513     12.73
04/30 10:00      0.00     15.08     15.42      6547     13.21
04/30 11:00      0.00     15.18     15.44      6614     13.37
04/30 12:00      0.00     15.28     15.48      6682     13.44
04/30 13:00      0.00     15.21     15.50      6634     13.37
04/30 14:00      0.00     15.30     15.55      6695     13.44
04/30 15:00      0.00     15.32     15.56      6709     13.53
04/30 16:00      0.00     15.24     15.58      6655     13.37
04/30 17:00      0.00     15.15     15.59      6594     13.37
04/30 18:00      0.00     15.36     15.63      6736     13.37
04/30 19:00      0.00     15.48     15.65      6818     13.37
04/30 20:00      0.00     15.41     15.70      6770     12.97
04/30 21:00      0.00     15.46     15.70      6804     12.65
04/30 22:00      0.00     15.54     15.73      6866     12.65
04/30 23:00      ----      ----     15.79      ----     12.65